YYB weather

North Bay Jack Garland Airport
North Bay, Ontario, Canada

Public forecast

Using degrees Celsius for public forecast. Weather courtesy of forecast.io.

METAR (pilot weather report)

Retrieved 2019/04/20 16:00 UTC (28 minutes ago):

CYYB 201600Z 04017G25KT 360V070 30SM FEW030 SCT170 BKN260 09/01 A2984 RMK SC1AC2CI4 SLP119

TAF (pilot weather forecast)

Retrieved 2019/04/20 14:39 UTC (2 hours ago):

TAF TAF CYYB 201338Z 2014/2102 05015G25KT P6SM BKN120 BKN200 FM201700 06012G22KT P6SM SCT030 BKN120 TEMPO 2017/2020 BKN030 OVC120 FM202000 06012KT P6SM OVC030 FM202200 06010KT P6SM OVC025 TEMPO 2022/2102 5SM -RA BR OVC012 RMK NXT FCST BY 202000Z